createdAt,value
2017-07-06T06:21:34.521Z,7884
2017-07-06T06:22:35.213Z,7964
2017-07-06T06:23:35.905Z,8092
2017-07-06T06:24:36.600Z,8152
2017-07-06T06:25:37.281Z,8220
2017-07-06T06:26:38.183Z,8280
2017-07-06T06:27:38.873Z,8336
2017-07-06T06:28:39.583Z,8392
2017-07-06T06:29:40.277Z,8464
2017-07-06T06:30:40.977Z,8544
2017-07-06T06:31:41.672Z,8592
2017-07-06T06:32:42.342Z,8632
2017-07-06T06:33:43.045Z,8692
2017-07-06T06:34:43.767Z,8728
2017-07-06T06:35:44.696Z,8776
2017-07-06T06:36:45.631Z,8820
2017-07-06T06:37:46.327Z,8860
2017-07-06T06:38:47.265Z,8880
2017-07-06T06:39:47.962Z,8896
2017-07-06T06:40:48.664Z,8928
2017-07-06T06:41:49.327Z,8664
2017-07-06T06:42:50.059Z,9032
2017-07-06T06:43:50.756Z,9092
2017-07-06T06:44:51.454Z,9152
2017-07-06T06:45:52.152Z,9196
2017-07-06T06:46:52.821Z,9216
2017-07-06T06:47:53.486Z,9216
2017-07-06T06:48:54.184Z,9260
2017-07-06T06:49:54.882Z,9320
2017-07-06T06:50:55.582Z,9360
2017-07-06T06:51:56.282Z,9380
2017-07-06T06:52:56.982Z,9408
2017-07-06T06:53:57.688Z,9428
2017-07-06T06:54:58.383Z,9412
2017-07-06T06:55:59.101Z,9388
2017-07-06T06:56:59.790Z,9372
2017-07-06T06:58:00.471Z,9416
2017-07-06T06:59:01.186Z,9512
2017-07-06T07:00:01.888Z,9628
2017-07-06T07:01:02.587Z,9740
2017-07-06T07:02:03.291Z,9832
2017-07-06T07:03:03.985Z,9932
2017-07-06T07:04:04.695Z,10016
2017-07-06T07:05:05.397Z,10076
2017-07-06T07:06:06.098Z,10156
2017-07-06T07:07:06.802Z,10268
2017-07-06T07:08:07.500Z,10384
2017-07-06T07:09:08.434Z,10540
2017-07-06T07:10:09.105Z,10692
2017-07-06T07:11:09.806Z,10852
2017-07-06T07:12:10.506Z,11000
2017-07-06T07:13:11.208Z,11136
2017-07-06T07:14:12.114Z,11300
2017-07-06T07:15:12.816Z,11548
2017-07-06T07:16:13.520Z,11896
2017-07-06T07:17:14.224Z,15372
2017-07-06T07:18:14.925Z,53280
2017-07-06T07:19:15.627Z,84576
2017-07-06T07:20:16.330Z,88832
2017-07-06T07:21:17.032Z,88896
2017-07-06T07:22:17.705Z,89184
2017-07-06T07:23:18.409Z,87104
2017-07-06T07:24:19.084Z,90880
2017-07-06T07:25:19.794Z,88640
2017-07-06T07:26:20.501Z,90464
2017-07-06T07:27:21.209Z,91872
2017-07-06T07:28:21.890Z,91104
2017-07-06T07:29:22.565Z,89696
2017-07-06T07:30:23.275Z,90368
2017-07-06T07:31:23.954Z,90944
2017-07-06T07:32:24.664Z,91200
2017-07-06T07:33:25.341Z,90528
2017-07-06T07:34:26.019Z,90848
2017-07-06T07:35:26.727Z,91904
2017-07-06T07:36:27.409Z,91104
2017-07-06T07:37:28.088Z,91872
2017-07-06T07:38:28.803Z,90560
2017-07-06T07:39:29.484Z,91808
2017-07-06T07:40:30.192Z,90752
2017-07-06T07:41:30.877Z,91616
2017-07-06T07:42:31.555Z,91392
2017-07-06T07:43:32.269Z,91712
2017-07-06T07:44:33.225Z,90144
2017-07-06T07:45:33.924Z,90976
2017-07-06T07:46:34.648Z,93152
2017-07-06T07:47:35.334Z,95200
2017-07-06T07:48:36.055Z,94880
2017-07-06T07:49:36.767Z,93760
2017-07-06T07:50:37.449Z,90912
2017-07-06T07:51:38.167Z,92832
2017-07-06T07:52:38.889Z,90976
2017-07-06T07:53:39.612Z,90656
2017-07-06T07:54:40.329Z,91328
2017-07-06T07:55:41.016Z,92960
2017-07-06T07:56:41.737Z,90272
2017-07-06T07:57:42.418Z,85984
2017-07-06T07:58:43.105Z,86016
2017-07-06T07:59:43.820Z,86912
2017-07-06T08:00:44.541Z,90208
2017-07-06T08:01:45.259Z,92416
2017-07-06T08:02:45.976Z,89984
2017-07-06T08:03:46.691Z,86592
2017-07-06T08:04:47.409Z,86016
2017-07-06T08:05:48.128Z,88096
2017-07-06T08:06:48.815Z,90240
2017-07-06T08:07:49.505Z,92704
2017-07-06T08:08:50.222Z,92896
2017-07-06T08:09:50.913Z,94624
2017-07-06T08:10:51.603Z,96256
2017-07-06T08:11:52.322Z,95200
2017-07-06T08:12:53.052Z,96000
2017-07-06T08:13:53.766Z,97280
2017-07-06T08:14:54.453Z,97728
2017-07-06T08:15:55.145Z,95488
2017-07-06T08:16:55.866Z,94240
2017-07-06T08:17:56.589Z,95040
2017-07-06T08:18:57.315Z,96224
2017-07-06T08:19:58.036Z,98016
2017-07-06T08:20:58.758Z,98048
2017-07-06T08:21:59.444Z,99104
2017-07-06T08:23:00.162Z,99936
2017-07-06T08:24:00.890Z,100000
2017-07-06T08:25:01.573Z,99040
2017-07-06T08:26:02.296Z,99328
2017-07-06T08:27:03.018Z,98208
2017-07-06T08:28:03.739Z,93440
2017-07-06T08:29:04.429Z,94880
2017-07-06T08:30:05.197Z,96800
2017-07-06T08:31:05.872Z,97024
2017-07-06T08:32:06.562Z,96736
2017-07-06T08:33:07.284Z,94656
2017-07-06T08:34:07.979Z,94784
2017-07-06T08:35:08.668Z,90880
2017-07-06T08:36:09.390Z,91808
2017-07-06T08:37:10.112Z,91840
2017-07-06T08:38:10.830Z,92800
2017-07-06T08:39:11.523Z,96512
2017-07-06T08:40:12.212Z,97888
2017-07-06T08:41:12.930Z,99648
2017-07-06T08:42:13.657Z,98080
2017-07-06T08:43:14.479Z,100704
2017-07-06T08:44:15.208Z,102688
2017-07-06T08:45:15.944Z,103104
2017-07-06T08:46:16.585Z,102784
2017-07-06T08:47:17.314Z,100160
2017-07-06T08:48:18.042Z,101760
2017-07-06T08:49:18.764Z,99776
2017-07-06T08:50:19.491Z,100544
2017-07-06T08:51:20.183Z,101504
2017-07-06T08:52:20.913Z,100896
2017-07-06T08:53:21.601Z,102016
2017-07-06T08:54:22.293Z,103296
2017-07-06T08:55:23.016Z,100864
2017-07-06T08:56:23.744Z,102240
2017-07-06T08:57:24.470Z,104768
2017-07-06T08:58:25.165Z,104096
2017-07-06T08:59:25.859Z,102912
2017-07-06T09:00:26.550Z,100256
2017-07-06T09:01:27.270Z,101408
2017-07-06T09:02:27.969Z,103552
2017-07-06T09:03:28.697Z,105184
2017-07-06T09:04:29.425Z,101664
2017-07-06T09:05:30.115Z,100768
2017-07-06T09:06:30.846Z,102784
2017-07-06T09:07:31.570Z,102848
2017-07-06T09:08:32.295Z,105600
2017-07-06T09:09:33.020Z,106240
2017-07-06T09:10:33.711Z,104768
2017-07-06T09:11:34.408Z,104224
2017-07-06T09:12:35.128Z,104800
2017-07-06T09:13:35.825Z,103776
2017-07-06T09:14:36.522Z,102784
2017-07-06T09:15:37.213Z,104320
2017-07-06T09:16:37.907Z,104832
2017-07-06T09:17:38.629Z,105600
2017-07-06T09:18:39.327Z,106240
2017-07-06T09:19:40.050Z,82624
2017-07-06T09:20:40.747Z,106496
2017-07-06T09:22:42.168Z,105536
2017-07-06T09:23:42.895Z,106304
2017-07-06T09:24:43.622Z,107968
2017-07-06T09:25:44.347Z,107744
2017-07-06T09:26:45.038Z,99040
2017-07-06T09:27:45.764Z,107872
2017-07-06T09:28:46.492Z,61888
2017-07-06T09:29:47.216Z,68416
2017-07-06T09:30:47.942Z,55744
2017-07-06T09:31:48.664Z,122432
2017-07-06T09:32:49.359Z,104160
2017-07-06T09:33:50.050Z,115328
2017-07-06T09:34:50.777Z,113760
2017-07-06T09:35:51.509Z,112064
2017-07-06T09:36:52.204Z,106080
2017-07-06T09:37:52.933Z,106784
2017-07-06T09:38:53.657Z,107040
2017-07-06T09:39:54.379Z,101184
2017-07-06T09:40:55.074Z,99456
2017-07-06T09:41:55.768Z,97280
2017-07-06T09:42:56.490Z,98560
2017-07-06T09:43:57.224Z,101536
2017-07-06T09:44:57.950Z,102400
2017-07-06T09:45:58.670Z,97152
2017-07-06T09:46:59.397Z,93440
2017-07-06T09:48:00.125Z,93568
2017-07-06T09:49:00.851Z,93568
2017-07-06T09:50:01.543Z,99072
2017-07-06T09:51:02.240Z,99488
2017-07-06T09:52:02.960Z,99456
2017-07-06T09:53:03.683Z,96704
2017-07-06T09:54:04.381Z,98176
2017-07-06T09:55:05.110Z,96064
2017-07-06T09:56:05.837Z,96256
2017-07-06T09:57:06.567Z,100480
2017-07-06T09:58:07.286Z,102016
2017-07-06T09:59:07.986Z,104992
2017-07-06T10:00:08.716Z,108480
2017-07-06T10:01:09.440Z,108224
2017-07-06T10:02:10.163Z,110432
2017-07-06T10:03:10.887Z,115008
2017-07-06T10:04:11.580Z,54944
2017-07-06T10:05:12.307Z,54336
2017-07-06T10:06:13.025Z,61920
2017-07-06T10:07:13.753Z,59072
2017-07-06T10:08:14.440Z,54496
2017-07-06T10:09:15.164Z,46528
2017-07-06T10:10:15.892Z,58112
2017-07-06T10:11:16.616Z,40320
2017-07-06T10:12:17.339Z,42816
2017-07-06T10:13:18.064Z,68128
2017-07-06T10:14:18.789Z,42016
2017-07-06T10:15:19.508Z,85184
2017-07-06T10:16:20.228Z,55904
2017-07-06T10:17:20.926Z,40928
2017-07-06T10:18:21.610Z,44736
2017-07-06T10:19:22.306Z,42496
2017-07-06T10:20:23.027Z,43936
2017-07-06T10:21:23.740Z,38048
2017-07-06T10:22:24.430Z,36480
2017-07-06T10:23:25.118Z,35296
2017-07-06T10:24:25.843Z,32768
2017-07-06T10:25:26.560Z,33536
2017-07-06T10:26:27.282Z,33920
2017-07-06T10:27:28.206Z,35232
2017-07-06T10:28:28.927Z,45824
2017-07-06T10:29:29.643Z,42272
2017-07-06T10:30:30.329Z,49088
2017-07-06T10:31:31.078Z,63840
2017-07-06T10:32:31.770Z,111232
2017-07-06T10:33:32.495Z,52256
2017-07-06T10:34:33.202Z,47776
2017-07-06T10:35:33.921Z,55328
2017-07-06T10:36:34.634Z,73920
2017-07-06T10:37:35.321Z,101312
2017-07-06T10:38:36.013Z,105120
2017-07-06T10:39:36.701Z,100736
2017-07-06T10:40:37.387Z,97856
2017-07-06T10:41:38.105Z,40160
2017-07-06T10:42:38.824Z,95744
2017-07-06T10:43:39.548Z,89952
2017-07-06T10:44:40.268Z,87296
2017-07-06T10:45:40.982Z,86272
2017-07-06T10:46:41.704Z,83296
2017-07-06T10:47:42.394Z,81696
2017-07-06T10:48:43.116Z,79616
2017-07-06T10:49:43.806Z,79488
2017-07-06T10:50:44.524Z,79232
2017-07-06T10:51:45.214Z,78624
2017-07-06T10:52:45.900Z,78016
2017-07-06T10:53:46.623Z,75168
2017-07-06T10:54:47.316Z,75680
2017-07-06T10:55:48.001Z,77184
2017-07-06T10:56:48.726Z,78496
2017-07-06T10:57:49.450Z,77120
2017-07-06T10:58:50.170Z,73856
2017-07-06T10:59:50.892Z,72480
2017-07-06T11:00:51.581Z,73056
2017-07-06T11:01:52.270Z,76000
2017-07-06T11:02:52.959Z,72224
2017-07-06T11:03:53.679Z,71552
2017-07-06T11:04:54.400Z,69664
2017-07-06T11:05:55.121Z,68320
2017-07-06T11:06:55.849Z,67712
2017-07-06T11:07:56.544Z,69632
2017-07-06T11:08:57.262Z,69056
2017-07-06T11:09:57.983Z,67296
2017-07-06T11:10:58.675Z,67424
2017-07-06T11:11:59.365Z,67840
2017-07-06T11:13:00.085Z,64192
2017-07-06T11:14:00.804Z,64640
2017-07-06T11:15:01.531Z,65664
2017-07-06T11:16:02.220Z,63872
2017-07-06T11:17:02.939Z,63424
2017-07-06T11:18:03.667Z,56608
2017-07-06T11:19:04.388Z,44192
2017-07-06T11:20:05.110Z,49824
2017-07-06T11:21:05.843Z,43264
2017-07-06T11:22:06.530Z,41248
2017-07-06T11:23:07.253Z,37504
2017-07-06T11:24:07.974Z,66752
2017-07-06T11:25:08.692Z,47648
2017-07-06T11:26:09.413Z,29120
2017-07-06T11:27:10.133Z,29568
2017-07-06T11:28:10.820Z,65376
2017-07-06T11:29:11.539Z,63808
2017-07-06T11:30:12.230Z,51936
2017-07-06T11:31:12.947Z,65824
2017-07-06T11:32:13.663Z,63840
2017-07-06T11:33:14.378Z,62976
2017-07-06T11:34:15.064Z,56800
2017-07-06T11:35:15.785Z,42464
2017-07-06T11:36:16.468Z,40800
2017-07-06T11:37:17.158Z,40832
2017-07-06T11:38:17.873Z,43200
2017-07-06T11:39:18.594Z,38240
2017-07-06T11:40:19.314Z,40576
2017-07-06T11:41:20.032Z,39456
2017-07-06T11:42:20.746Z,44064
2017-07-06T11:43:21.468Z,36384
2017-07-06T11:44:22.186Z,33600
2017-07-06T11:45:22.908Z,32576
2017-07-06T11:46:23.866Z,31104
2017-07-06T11:47:24.588Z,31296
2017-07-06T11:48:25.313Z,31584
2017-07-06T11:49:26.035Z,34368
2017-07-06T11:50:26.757Z,34112
2017-07-06T11:51:27.441Z,39424
2017-07-06T11:52:28.162Z,35936
2017-07-06T11:53:28.881Z,34656
2017-07-06T11:54:29.568Z,33248
2017-07-06T11:55:30.289Z,34240
2017-07-06T11:56:31.245Z,35104
2017-07-06T11:57:31.962Z,35968
2017-07-06T11:58:32.684Z,35680
2017-07-06T11:59:33.397Z,31968
2017-07-06T12:00:34.154Z,35392
2017-07-06T12:01:34.799Z,30592
2017-07-06T12:02:35.515Z,28160
2017-07-06T12:03:36.230Z,29312
2017-07-06T12:04:36.953Z,28864
2017-07-06T12:05:37.675Z,29216
2017-07-06T12:06:38.357Z,28192
2017-07-06T12:07:39.045Z,28704
2017-07-06T12:08:39.763Z,27584
2017-07-06T12:09:40.450Z,25984
2017-07-06T12:10:41.138Z,25280
2017-07-06T12:11:41.822Z,21728
2017-07-06T12:12:42.540Z,23840
2017-07-06T12:13:43.256Z,23168
2017-07-06T12:14:43.967Z,23008
2017-07-06T12:15:44.653Z,22304
2017-07-06T12:16:45.366Z,22112
2017-07-06T12:17:46.087Z,22592
2017-07-06T12:18:46.771Z,23168
2017-07-06T12:19:47.490Z,22976
2017-07-06T12:20:48.176Z,18016
2017-07-06T12:21:48.859Z,18464
2017-07-06T12:22:49.578Z,21568
2017-07-06T12:23:50.291Z,24320
2017-07-06T12:24:51.245Z,21824
2017-07-06T12:25:51.960Z,23040
2017-07-06T12:26:52.671Z,22720
2017-07-06T12:27:53.393Z,22560
2017-07-06T12:28:54.107Z,22368
2017-07-06T12:29:54.826Z,22304
2017-07-06T12:30:55.543Z,22368
2017-07-06T12:31:56.262Z,22144
2017-07-06T12:32:56.949Z,21568
2017-07-06T12:33:57.664Z,21088
2017-07-06T12:34:58.380Z,20512
2017-07-06T12:35:59.093Z,19968
2017-07-06T12:36:59.784Z,19488
2017-07-06T12:38:00.497Z,19040
2017-07-06T12:39:01.216Z,18624
2017-07-06T12:40:01.938Z,18272
2017-07-06T12:41:02.654Z,17984
2017-07-06T12:42:03.376Z,17696
2017-07-06T12:43:04.093Z,17600
2017-07-06T12:44:04.811Z,17600
2017-07-06T12:45:05.529Z,18304
2017-07-06T12:46:06.250Z,31232
2017-07-06T12:47:06.972Z,53568
2017-07-06T12:48:07.690Z,57440
2017-07-06T12:49:08.413Z,58496
2017-07-06T12:50:09.128Z,55008
2017-07-06T12:51:09.844Z,55872
2017-07-06T12:52:10.569Z,56000
2017-07-06T12:53:11.254Z,55200
2017-07-06T12:54:11.972Z,55712
2017-07-06T12:55:12.657Z,56864
2017-07-06T12:56:13.370Z,55264
2017-07-06T12:57:14.091Z,53664
2017-07-06T12:58:14.777Z,51488
2017-07-06T12:59:15.498Z,53696
2017-07-06T13:00:16.217Z,54272
2017-07-06T13:01:16.941Z,55904
2017-07-06T13:02:17.663Z,57856
2017-07-06T13:03:18.381Z,55584
2017-07-06T13:04:19.099Z,33536
2017-07-06T13:05:19.819Z,30752
2017-07-06T13:06:20.540Z,51136
2017-07-06T13:07:21.260Z,32448
2017-07-06T13:08:21.979Z,42560
2017-07-06T13:09:22.700Z,41760
2017-07-06T13:10:23.423Z,39584
2017-07-06T13:11:24.145Z,25888
2017-07-06T13:12:24.833Z,35840
2017-07-06T13:13:25.555Z,57056
2017-07-06T13:14:26.276Z,52160
2017-07-06T13:15:26.987Z,48480
2017-07-06T13:16:27.707Z,56096
2017-07-06T13:17:28.431Z,50112
2017-07-06T13:18:29.147Z,52384
2017-07-06T13:19:29.867Z,49344
2017-07-06T13:20:30.589Z,46144
2017-07-06T13:21:31.308Z,45184
2017-07-06T13:22:32.265Z,45984
2017-07-06T13:23:32.981Z,48352
2017-07-06T13:24:33.699Z,47008
2017-07-06T13:25:34.419Z,46016
2017-07-06T13:26:35.141Z,47040
2017-07-06T13:27:35.827Z,46688
2017-07-06T13:28:36.519Z,46432
2017-07-06T13:29:37.237Z,45184
2017-07-06T13:30:37.962Z,44096
2017-07-06T13:31:38.650Z,44320
2017-07-06T13:32:39.338Z,43808
2017-07-06T13:33:40.063Z,40928
2017-07-06T13:34:40.777Z,41184
2017-07-06T13:35:41.497Z,43744
2017-07-06T13:36:42.221Z,40576
2017-07-06T13:37:42.942Z,38464
2017-07-06T13:38:43.667Z,41120
2017-07-06T13:39:44.355Z,46944
2017-07-06T13:40:45.075Z,44896
2017-07-06T13:41:45.798Z,46048
2017-07-06T13:42:46.504Z,45792
2017-07-06T13:43:47.239Z,49600
2017-07-06T13:44:47.961Z,46944
2017-07-06T13:45:48.683Z,46400
2017-07-06T13:46:49.400Z,49120
2017-07-06T13:47:50.123Z,49632
2017-07-06T13:48:50.840Z,51200
2017-07-06T13:49:51.533Z,46816
2017-07-06T13:50:52.254Z,49376
2017-07-06T13:51:52.942Z,48032
2017-07-06T13:52:53.659Z,45088
2017-07-06T13:53:54.384Z,38912
2017-07-06T13:54:55.102Z,39296
2017-07-06T13:55:55.839Z,36544
2017-07-06T13:56:56.536Z,28672
2017-07-06T13:57:57.259Z,31520
2017-07-06T13:58:57.979Z,33280
2017-07-06T13:59:58.708Z,28512
2017-07-06T14:00:59.396Z,21920
2017-07-06T14:02:00.129Z,19072
2017-07-06T14:03:00.840Z,18048
2017-07-06T14:04:01.571Z,18592
2017-07-06T14:05:02.237Z,18784
2017-07-06T14:06:02.923Z,17280
2017-07-06T14:07:03.611Z,16544
2017-07-06T14:08:04.330Z,17120
2017-07-06T14:09:05.055Z,16832
2017-07-06T14:10:05.738Z,16800
2017-07-06T14:11:06.457Z,17472
2017-07-06T14:12:07.145Z,17472
2017-07-06T14:13:07.834Z,17376
2017-07-06T14:14:08.552Z,17024
2017-07-06T14:15:09.265Z,16832
2017-07-06T14:16:09.982Z,16800
2017-07-06T14:17:10.695Z,16800
2017-07-06T14:18:11.409Z,16352
2017-07-06T14:19:12.091Z,15876
2017-07-06T14:20:12.813Z,15328
2017-07-06T14:21:13.525Z,14912
2017-07-06T14:22:14.237Z,14580
2017-07-06T14:23:14.945Z,14416
2017-07-06T14:24:15.664Z,14184
2017-07-06T14:25:16.344Z,14096
2017-07-06T14:26:17.063Z,13968
2017-07-06T14:27:17.747Z,13800
2017-07-06T14:28:18.457Z,13648
2017-07-06T14:29:19.170Z,13476
2017-07-06T14:30:19.886Z,13288
2017-07-06T14:31:20.599Z,13096
2017-07-06T14:32:21.311Z,12880
2017-07-06T14:33:22.026Z,12704
2017-07-06T14:34:22.740Z,12576
2017-07-06T14:35:23.449Z,12476
2017-07-06T14:36:24.165Z,12408
2017-07-06T14:37:24.845Z,12364
2017-07-06T14:38:25.554Z,12336
2017-07-06T14:39:26.233Z,12304
2017-07-06T14:40:26.950Z,12288
2017-07-06T14:41:27.661Z,12280
2017-07-06T14:42:28.374Z,12284
2017-07-06T14:43:29.089Z,12316
2017-07-06T14:44:29.797Z,12328
2017-07-06T14:45:30.508Z,12312
2017-07-06T14:46:31.217Z,12268
2017-07-06T14:47:31.934Z,12204
2017-07-06T14:48:32.647Z,12124
2017-07-06T14:49:33.357Z,12008
2017-07-06T14:50:34.064Z,11832
2017-07-06T14:51:34.778Z,11592
2017-07-06T14:52:35.497Z,11336
2017-07-06T14:53:36.199Z,11084
2017-07-06T14:54:36.909Z,10836
2017-07-06T14:55:37.622Z,10584
2017-07-06T14:56:38.330Z,10332
2017-07-06T14:57:39.009Z,10112
2017-07-06T14:58:39.723Z,9920
2017-07-06T14:59:40.434Z,9752
2017-07-06T15:00:41.143Z,9596
2017-07-06T15:01:41.851Z,9420
2017-07-06T15:02:42.560Z,9236
2017-07-06T15:03:43.273Z,9036
2017-07-06T15:04:43.985Z,8836
2017-07-06T15:05:44.692Z,8608
2017-07-06T15:06:45.401Z,8352
2017-07-06T15:07:46.075Z,8068
2017-07-06T15:08:46.766Z,7764
2017-07-06T15:09:47.501Z,7452
2017-07-06T15:10:48.205Z,7148
2017-07-06T15:11:48.885Z,6876
2017-07-06T15:12:49.588Z,6644
2017-07-06T15:13:50.302Z,6452
2017-07-06T15:14:51.016Z,6276
2017-07-06T15:15:51.689Z,6120
2017-07-06T15:16:52.393Z,5996
2017-07-06T15:17:53.096Z,5896
2017-07-06T15:18:53.809Z,5816
2017-07-06T15:19:54.515Z,5760
2017-07-06T15:20:55.225Z,5720
2017-07-06T15:21:55.901Z,5716
2017-07-06T15:22:56.607Z,5744
2017-07-06T15:23:57.314Z,5808
2017-07-06T15:24:58.024Z,5904
2017-07-06T15:25:58.730Z,6032
2017-07-06T15:26:59.438Z,6204
2017-07-06T15:28:00.144Z,6408
2017-07-06T15:29:00.855Z,6672
2017-07-06T15:30:01.772Z,6996
2017-07-06T15:31:02.483Z,7392
2017-07-06T15:32:03.184Z,7888
2017-07-06T15:33:03.893Z,8488
2017-07-06T15:34:04.566Z,9268
2017-07-06T15:35:05.275Z,10136
2017-07-06T15:36:05.950Z,10876
2017-07-06T15:37:06.659Z,11784
2017-07-06T15:38:07.369Z,12740
2017-07-06T15:39:08.047Z,13548
2017-07-06T15:40:08.758Z,13976
2017-07-06T15:41:09.460Z,14416
2017-07-06T15:42:10.167Z,15008
2017-07-06T15:43:10.877Z,15420
2017-07-06T15:44:11.589Z,15232
2017-07-06T15:45:12.515Z,16032
2017-07-06T15:46:13.222Z,15612
2017-07-06T15:47:13.936Z,16480
2017-07-06T15:48:14.612Z,16160
2017-07-06T15:49:15.320Z,16928
2017-07-06T15:50:16.024Z,17312
2017-07-06T15:51:16.732Z,17280
2017-07-06T15:52:17.438Z,18336
2017-07-06T15:53:18.146Z,19904
2017-07-06T15:54:18.822Z,20800
2017-07-06T15:55:19.528Z,21152
2017-07-06T15:56:20.236Z,21856
2017-07-06T15:57:20.943Z,22208
2017-07-06T15:58:21.648Z,23296
2017-07-06T15:59:22.328Z,24096
2017-07-06T16:00:23.007Z,24256
2017-07-06T16:01:23.718Z,24160
2017-07-06T16:02:24.425Z,24000
2017-07-06T16:03:25.135Z,23904
2017-07-06T16:04:25.841Z,23392
2017-07-06T16:05:26.520Z,23456
2017-07-06T16:06:27.226Z,23680
2017-07-06T16:07:27.930Z,23264
2017-07-06T16:08:28.614Z,24064
2017-07-06T16:09:29.327Z,23424
2017-07-06T16:10:30.029Z,23392
2017-07-06T16:11:30.708Z,14656
2017-07-06T16:12:31.416Z,12028
2017-07-06T16:13:32.129Z,17344
2017-07-06T16:14:32.842Z,16512
2017-07-06T16:15:33.551Z,17952
2017-07-06T16:16:34.260Z,17088
2017-07-06T16:17:34.958Z,19808
2017-07-06T16:18:35.687Z,20416
2017-07-06T16:19:36.403Z,20736
2017-07-06T16:20:37.081Z,20256
2017-07-06T16:21:37.794Z,18208
2017-07-06T16:22:38.491Z,19488
2017-07-06T16:23:39.190Z,17472
2017-07-06T16:24:39.908Z,14332
2017-07-06T16:25:40.623Z,14184
2017-07-06T16:26:41.330Z,14100
2017-07-06T16:27:42.038Z,12876
2017-07-06T16:28:42.758Z,11576
2017-07-06T16:29:43.477Z,11400
2017-07-06T16:30:44.159Z,10280
2017-07-06T16:31:44.839Z,10176
2017-07-06T16:32:45.525Z,9972
2017-07-06T16:33:46.230Z,10364
2017-07-06T16:34:46.939Z,9820
2017-07-06T16:35:47.652Z,9640
2017-07-06T16:36:48.330Z,9268
2017-07-06T16:37:49.069Z,9000
2017-07-06T16:38:49.780Z,8928
2017-07-06T16:39:50.492Z,8540
2017-07-06T16:40:51.172Z,8392
2017-07-06T16:41:51.891Z,8152
2017-07-06T16:42:52.591Z,7820
2017-07-06T16:43:53.306Z,7584
2017-07-06T16:44:54.015Z,7368
2017-07-06T16:45:54.719Z,7212
2017-07-06T16:46:55.430Z,7048
2017-07-06T16:47:56.143Z,6880
2017-07-06T16:48:56.853Z,6752
2017-07-06T16:49:57.566Z,6672
2017-07-06T16:50:58.270Z,6624
2017-07-06T16:51:58.984Z,6628
2017-07-06T16:52:59.695Z,6608
2017-07-06T16:54:00.397Z,6588
2017-07-06T16:55:01.075Z,6564
2017-07-06T16:56:01.781Z,6500
2017-07-06T16:57:02.494Z,6380
2017-07-06T16:58:03.200Z,6244
2017-07-06T16:59:03.909Z,6036
2017-07-06T17:00:04.615Z,5752
2017-07-06T17:01:05.324Z,5384
2017-07-06T17:02:06.031Z,5020
2017-07-06T17:03:06.736Z,4692
2017-07-06T17:04:07.448Z,4388
2017-07-06T17:05:08.155Z,4128
2017-07-06T17:06:08.868Z,3916
2017-07-06T17:07:09.576Z,3752
2017-07-06T17:08:10.250Z,3612
2017-07-06T17:09:10.961Z,3496
2017-07-06T17:10:11.661Z,3396
2017-07-06T17:11:12.340Z,3292
2017-07-06T17:12:13.074Z,3196
2017-07-06T17:13:13.753Z,3104
2017-07-06T17:14:14.511Z,3004
2017-07-06T17:15:15.158Z,2900
2017-07-06T17:16:15.897Z,2804
2017-07-06T17:17:16.836Z,2724
2017-07-06T17:18:17.537Z,2672
2017-07-06T17:19:18.244Z,2636
2017-07-06T17:20:18.931Z,2624
2017-07-06T17:21:19.624Z,2640
2017-07-06T17:22:20.333Z,2676
2017-07-06T17:23:21.036Z,2764
2017-07-06T17:24:21.743Z,2960
2017-07-06T17:25:22.446Z,3240
2017-07-06T17:26:23.153Z,3576
2017-07-06T17:27:23.828Z,3892
2017-07-06T17:28:24.535Z,4068
2017-07-06T17:29:25.240Z,4148
2017-07-06T17:30:25.938Z,4144
2017-07-06T17:31:26.667Z,4048
2017-07-06T17:32:27.380Z,3992
2017-07-06T17:33:28.078Z,3976
2017-07-06T17:34:28.818Z,4016
2017-07-06T17:35:29.491Z,4272
2017-07-06T17:36:30.265Z,4576
2017-07-06T17:37:30.908Z,4848
2017-07-06T17:38:31.647Z,5108
2017-07-06T17:39:32.351Z,5352
2017-07-06T17:40:33.056Z,5720
2017-07-06T17:41:33.757Z,6168
2017-07-06T17:42:34.467Z,6520
2017-07-06T17:43:35.138Z,6600
2017-07-06T17:44:35.840Z,6488
2017-07-06T17:45:36.545Z,6848
2017-07-06T17:46:37.256Z,6780
2017-07-06T17:47:37.964Z,6656
2017-07-06T17:48:38.634Z,6588
2017-07-06T17:49:39.344Z,6452
2017-07-06T17:50:40.050Z,6264
2017-07-06T17:51:40.755Z,6124
2017-07-06T17:52:41.455Z,6036
2017-07-06T17:53:42.163Z,5568
2017-07-06T17:54:42.873Z,5492
2017-07-06T17:55:43.589Z,5900
2017-07-06T17:56:44.260Z,5460
2017-07-06T17:57:44.971Z,5508
2017-07-06T17:58:45.637Z,5328
2017-07-06T17:59:46.342Z,4916
2017-07-06T18:00:47.048Z,5256
2017-07-06T18:01:47.757Z,5248
2017-07-06T18:02:48.699Z,4840
2017-07-06T18:03:49.400Z,4788
2017-07-06T18:04:50.109Z,4460
2017-07-06T18:05:50.817Z,4160
2017-07-06T18:06:51.521Z,3484
2017-07-06T18:07:52.226Z,3148
2017-07-06T18:08:52.934Z,2920
2017-07-06T18:09:53.642Z,2776
2017-07-06T18:10:54.365Z,2688
2017-07-06T18:11:55.042Z,2612
2017-07-06T18:12:55.715Z,2492
2017-07-06T18:13:56.434Z,2388
2017-07-06T18:14:57.156Z,2308
2017-07-06T18:15:57.826Z,2276
2017-07-06T18:16:58.531Z,2236
2017-07-06T18:17:59.239Z,2144
2017-07-06T18:18:59.940Z,2168
2017-07-06T18:20:00.647Z,2272
2017-07-06T18:21:01.363Z,2324
2017-07-06T18:22:02.069Z,2356
2017-07-06T18:23:02.768Z,2424
2017-07-06T18:24:03.478Z,2560
2017-07-06T18:25:04.181Z,2740
2017-07-06T18:26:04.895Z,2916
2017-07-06T18:27:05.595Z,2960
2017-07-06T18:28:06.265Z,2920
2017-07-06T18:29:06.973Z,2896
2017-07-06T18:30:07.673Z,2832
2017-07-06T18:31:08.379Z,2736
2017-07-06T18:32:09.079Z,2616
2017-07-06T18:33:09.799Z,2504
2017-07-06T18:34:10.488Z,2284
2017-07-06T18:35:11.192Z,2036
2017-07-06T18:36:11.897Z,1808
2017-07-06T18:37:12.601Z,1640
2017-07-06T18:38:13.306Z,1548
2017-07-06T18:39:14.010Z,1484
2017-07-06T18:40:14.712Z,1456
2017-07-06T18:41:15.408Z,1456
2017-07-06T18:42:16.116Z,1448
2017-07-06T18:43:16.813Z,1404
2017-07-06T18:44:17.519Z,1344
2017-07-06T18:45:18.188Z,1256
2017-07-06T18:46:18.891Z,1144
2017-07-06T18:47:19.594Z,1036
2017-07-06T18:48:20.291Z,940
2017-07-06T18:49:20.993Z,848
2017-07-06T18:50:21.698Z,760
2017-07-06T18:51:22.399Z,680
2017-07-06T18:52:23.100Z,608
2017-07-06T18:53:23.798Z,552
2017-07-06T18:54:24.499Z,496
2017-07-06T18:55:25.196Z,448
2017-07-06T18:56:25.897Z,404
2017-07-06T18:57:26.599Z,372
2017-07-06T18:58:27.302Z,348
2017-07-06T18:59:28.021Z,328
2017-07-06T19:00:28.696Z,312
2017-07-06T19:01:29.393Z,304
2017-07-06T19:02:30.104Z,296
2017-07-06T19:03:31.044Z,292
2017-07-06T19:04:31.709Z,296
2017-07-06T19:05:32.416Z,296
2017-07-06T19:06:33.079Z,296
2017-07-06T19:07:33.812Z,280
